createdAt,value
2022-10-29T00:01:57.560Z,15.51
2022-10-29T00:04:26.986Z,15.58
2022-10-29T00:06:57.469Z,15.67
2022-10-29T00:09:26.174Z,15.65
2022-10-29T00:11:54.338Z,15.69
2022-10-29T00:14:22.623Z,15.79
2022-10-29T00:16:51.503Z,15.78
2022-10-29T00:19:21.528Z,15.74
2022-10-29T00:21:52.437Z,15.73
2022-10-29T00:24:20.621Z,15.63
2022-10-29T00:26:49.048Z,15.44
2022-10-29T00:29:17.357Z,15.39
2022-10-29T00:31:45.801Z,15.51
2022-10-29T00:34:14.029Z,15.42
2022-10-29T00:36:43.979Z,15.51
2022-10-29T00:39:16.398Z,15.56
2022-10-29T00:41:45.786Z,15.49
2022-10-29T00:44:36.310Z,15.47
2022-10-29T00:47:13.471Z,15.48
2022-10-29T00:49:43.849Z,15.56
2022-10-29T00:52:17.085Z,15.55
2022-10-29T00:54:50.135Z,15.31
2022-10-29T00:57:24.060Z,15.09
2022-10-29T00:59:52.820Z,14.92
2022-10-29T01:02:25.216Z,15.05
2022-10-29T01:04:55.443Z,15.25
2022-10-29T01:07:26.182Z,15.07
2022-10-29T01:09:54.856Z,15.07
2022-10-29T01:12:48.978Z,14.90
2022-10-29T01:15:26.505Z,14.82
2022-10-29T01:18:10.185Z,14.77
2022-10-29T01:21:09.786Z,14.93
2022-10-29T01:24:11.483Z,15.00
2022-10-29T01:27:20.795Z,14.98
2022-10-29T01:30:05.373Z,14.91
2022-10-29T01:32:46.169Z,14.94
2022-10-29T01:35:21.845Z,15.02
2022-10-29T01:37:58.000Z,14.89
2022-10-29T01:40:29.549Z,14.86
2022-10-29T01:43:06.350Z,14.78
2022-10-29T01:45:39.284Z,14.75
2022-10-29T01:48:15.466Z,14.71
2022-10-29T01:50:47.478Z,14.80
2022-10-29T01:53:15.761Z,14.79
2022-10-29T01:55:44.596Z,14.77
2022-10-29T01:58:14.797Z,14.74
2022-10-29T02:00:52.284Z,14.73
2022-10-29T02:03:39.118Z,14.66
2022-10-29T02:06:16.414Z,14.57
2022-10-29T02:08:54.653Z,14.37
2022-10-29T02:11:27.523Z,14.31
2022-10-29T02:14:00.852Z,14.27
2022-10-29T02:16:31.791Z,14.36
2022-10-29T02:19:02.977Z,14.37
2022-10-29T02:21:31.365Z,14.37
2022-10-29T02:24:02.447Z,14.39
2022-10-29T02:26:30.928Z,14.28
2022-10-29T02:28:59.462Z,14.30
2022-10-29T02:31:28.650Z,14.30
2022-10-29T02:33:57.061Z,14.30
2022-10-29T02:36:27.008Z,14.29
2022-10-29T02:38:55.731Z,14.11
2022-10-29T02:41:24.664Z,14.09
2022-10-29T02:43:56.702Z,14.00
2022-10-29T02:46:27.807Z,13.94
2022-10-29T02:48:58.859Z,13.86
2022-10-29T02:51:29.388Z,13.82
2022-10-29T02:53:58.156Z,13.81
2022-10-29T02:56:26.624Z,13.77
2022-10-29T02:58:55.085Z,13.79
2022-10-29T03:01:23.316Z,13.68
2022-10-29T03:03:51.681Z,13.72
2022-10-29T03:06:22.011Z,13.78
2022-10-29T03:08:52.004Z,13.87
2022-10-29T03:11:20.350Z,13.91
2022-10-29T03:13:49.052Z,13.84
2022-10-29T03:16:17.711Z,13.79
2022-10-29T03:18:46.309Z,13.63
2022-10-29T03:21:16.073Z,13.66
2022-10-29T03:23:44.485Z,13.73
2022-10-29T03:26:14.936Z,13.78
2022-10-29T03:31:14.780Z,13.87
2022-10-29T03:33:43.342Z,13.82
2022-10-29T03:36:12.170Z,13.78
2022-10-29T03:38:41.424Z,13.74
2022-10-29T03:41:11.137Z,13.60
2022-10-29T03:43:42.971Z,13.61
2022-10-29T03:46:13.283Z,13.35
2022-10-29T03:48:42.244Z,13.32
2022-10-29T03:51:12.138Z,13.13
2022-10-29T03:53:44.516Z,13.10
2022-10-29T03:56:12.851Z,13.01
2022-10-29T03:58:42.773Z,13.05
2022-10-29T04:01:12.717Z,13.25
2022-10-29T04:03:42.637Z,13.27
2022-10-29T04:06:15.437Z,13.26
2022-10-29T04:08:44.136Z,13.28
2022-10-29T04:11:13.735Z,13.31
2022-10-29T04:13:44.120Z,13.40
2022-10-29T04:16:13.128Z,13.41
2022-10-29T04:18:41.574Z,13.26
2022-10-29T04:29:38.491Z,13.21
2022-10-29T04:32:06.898Z,13.13
2022-10-29T04:34:35.274Z,13.19
2022-10-29T04:37:03.609Z,13.09
2022-10-29T04:39:32.204Z,13.17
2022-10-29T04:42:00.942Z,13.19
2022-10-29T04:44:29.379Z,13.17
2022-10-29T04:46:58.958Z,13.20
2022-10-29T04:49:27.609Z,13.11
2022-10-29T04:51:57.001Z,13.24
2022-10-29T04:54:25.432Z,13.12
2022-10-29T04:56:53.979Z,13.19
2022-10-29T04:59:22.616Z,13.42
2022-10-29T05:01:50.721Z,13.61
2022-10-29T05:04:20.550Z,13.41
2022-10-29T05:06:50.105Z,12.82
2022-10-29T05:09:18.548Z,13.05
2022-10-29T05:11:47.262Z,13.13
2022-10-29T05:14:15.668Z,13.16
2022-10-29T05:16:45.408Z,13.38
2022-10-29T05:19:15.565Z,13.40
2022-10-29T05:21:45.631Z,13.38
2022-10-29T05:24:14.118Z,13.52
2022-10-29T05:26:44.289Z,13.50
2022-10-29T05:29:12.800Z,13.48
2022-10-29T05:31:43.821Z,13.42
2022-10-29T05:34:12.533Z,13.38
2022-10-29T05:36:40.947Z,13.40
2022-10-29T05:39:11.172Z,13.54
2022-10-29T05:41:39.683Z,13.60
2022-10-29T05:44:08.212Z,13.72
2022-10-29T05:46:36.681Z,13.73
2022-10-29T05:49:05.059Z,13.75
2022-10-29T05:51:35.833Z,13.85
2022-10-29T05:54:06.703Z,13.70
2022-10-29T05:56:38.186Z,13.63
2022-10-29T05:59:07.176Z,13.50
2022-10-29T06:01:35.400Z,13.49
2022-10-29T06:04:04.025Z,13.30
2022-10-29T06:06:32.599Z,13.56
2022-10-29T06:09:01.292Z,13.71
2022-10-29T06:11:29.708Z,13.80
2022-10-29T06:13:59.833Z,13.83
2022-10-29T06:16:28.906Z,13.90
2022-10-29T06:18:57.491Z,14.00
2022-10-29T06:21:26.721Z,14.00
2022-10-29T06:23:56.053Z,14.02
2022-10-29T06:26:24.498Z,14.04
2022-10-29T06:28:52.681Z,14.11
2022-10-29T06:31:22.463Z,14.06
2022-10-29T06:33:50.880Z,14.00
2022-10-29T06:36:20.897Z,13.95
2022-10-29T06:38:52.555Z,13.91
2022-10-29T06:41:25.503Z,13.96
2022-10-29T06:43:55.075Z,14.12
2022-10-29T06:46:26.316Z,14.11
2022-10-29T06:48:54.680Z,14.17
2022-10-29T06:53:58.026Z,14.24
2022-10-29T06:56:26.619Z,14.22
2022-10-29T06:58:55.174Z,14.29
2022-10-29T07:01:30.770Z,14.27
2022-10-29T07:04:00.642Z,14.33
2022-10-29T07:06:33.632Z,14.34
2022-10-29T07:09:02.170Z,14.35
2022-10-29T07:11:31.015Z,14.42
2022-10-29T07:13:59.423Z,14.43
2022-10-29T07:16:29.918Z,14.35
2022-10-29T07:18:58.337Z,14.53
2022-10-29T07:21:28.224Z,14.51
2022-10-29T07:23:59.058Z,14.48
2022-10-29T07:26:28.718Z,14.50
2022-10-29T07:28:58.702Z,14.54
2022-10-29T07:31:28.521Z,14.49
2022-10-29T07:33:57.360Z,14.58
2022-10-29T07:36:25.970Z,14.37
2022-10-29T07:38:54.662Z,14.52
2022-10-29T07:41:23.480Z,14.60
2022-10-29T07:43:52.886Z,14.62
2022-10-29T07:46:21.881Z,14.72
2022-10-29T07:48:52.716Z,14.70
2022-10-29T07:51:21.284Z,14.61
2022-10-29T07:53:49.690Z,14.59
2022-10-29T07:56:18.177Z,14.68
2022-10-29T07:58:46.632Z,14.82
2022-10-29T08:01:15.532Z,14.78
2022-10-29T08:03:44.342Z,14.79
2022-10-29T08:06:17.133Z,15.07
2022-10-29T08:08:45.496Z,15.10
2022-10-29T08:11:14.346Z,15.27
2022-10-29T08:13:42.593Z,15.26
2022-10-29T08:16:11.087Z,15.35
2022-10-29T08:18:39.513Z,15.28
2022-10-29T08:21:08.607Z,15.31
2022-10-29T08:23:38.416Z,15.17
2022-10-29T08:26:07.024Z,15.18
2022-10-29T08:28:35.974Z,15.31
2022-10-29T08:31:04.946Z,15.35
2022-10-29T08:33:33.245Z,15.45
2022-10-29T08:36:01.734Z,15.46
2022-10-29T08:38:30.414Z,15.51
2022-10-29T08:41:19.996Z,15.49
2022-10-29T08:44:07.897Z,15.57
2022-10-29T08:46:48.868Z,15.64
2022-10-29T08:49:21.257Z,15.59
2022-10-29T08:51:55.723Z,15.61
2022-10-29T08:54:30.992Z,15.63
2022-10-29T08:57:08.259Z,15.63
2022-10-29T08:59:45.114Z,15.80
2022-10-29T09:02:22.013Z,15.72
2022-10-29T09:04:51.469Z,15.82
2022-10-29T09:07:41.853Z,16.00
2022-10-29T09:10:19.339Z,15.94
2022-10-29T09:13:02.892Z,16.16
2022-10-29T09:15:41.746Z,16.10
2022-10-29T09:18:37.257Z,16.23
2022-10-29T09:21:13.731Z,16.28
2022-10-29T09:24:00.387Z,16.31
2022-10-29T09:26:34.843Z,16.33
2022-10-29T09:29:31.340Z,16.42
2022-10-29T09:32:04.155Z,16.49
2022-10-29T09:34:44.274Z,16.48
2022-10-29T09:37:17.404Z,16.56
2022-10-29T09:39:50.334Z,16.70
2022-10-29T09:42:25.957Z,16.64
2022-10-29T09:44:58.442Z,16.86
2022-10-29T09:47:38.584Z,17.08
2022-10-29T09:50:16.981Z,17.23
2022-10-29T09:52:46.671Z,17.33
2022-10-29T09:55:22.255Z,17.38
2022-10-29T09:57:51.273Z,17.42
2022-10-29T10:00:24.602Z,17.37
2022-10-29T10:02:59.311Z,17.29
2022-10-29T10:05:29.857Z,17.21
2022-10-29T10:08:12.630Z,17.32
2022-10-29T10:11:05.037Z,17.37
2022-10-29T10:13:36.015Z,17.34
2022-10-29T10:16:07.515Z,17.44
2022-10-29T10:18:42.215Z,17.46
2022-10-29T10:21:13.348Z,17.49
2022-10-29T10:23:44.922Z,17.52
2022-10-29T10:26:34.772Z,17.51
2022-10-29T10:29:11.212Z,17.50
2022-10-29T10:31:41.597Z,17.62
2022-10-29T10:34:15.788Z,17.57
2022-10-29T10:36:46.116Z,17.56
2022-10-29T10:39:25.710Z,17.54
2022-10-29T10:41:55.043Z,17.66
2022-10-29T10:44:25.409Z,17.72
2022-10-29T10:46:58.234Z,17.92
2022-10-29T10:49:33.406Z,17.84
2022-10-29T10:52:06.883Z,17.67
2022-10-29T10:54:42.180Z,17.64
2022-10-29T10:57:23.967Z,17.71
2022-10-29T11:00:01.371Z,17.71
2022-10-29T11:02:39.603Z,17.45
2022-10-29T11:05:17.468Z,17.50
2022-10-29T11:07:50.746Z,17.51
2022-10-29T11:10:22.310Z,17.57
2022-10-29T11:13:00.828Z,17.61
2022-10-29T11:15:39.228Z,17.65
2022-10-29T11:21:00.956Z,17.71
2022-10-29T11:23:40.279Z,17.77
2022-10-29T11:26:13.191Z,17.73
2022-10-29T11:28:49.592Z,17.75
2022-10-29T11:31:26.130Z,17.81
2022-10-29T11:34:05.010Z,18.00
2022-10-29T11:36:43.227Z,18.26
2022-10-29T11:39:17.876Z,18.49
2022-10-29T11:41:52.396Z,18.55
2022-10-29T11:44:21.959Z,18.64
2022-10-29T11:47:11.369Z,18.75
2022-10-29T11:50:00.833Z,18.90
2022-10-29T11:52:36.541Z,18.95
2022-10-29T11:55:19.836Z,18.90
2022-10-29T11:57:55.753Z,18.87
2022-10-29T12:00:25.577Z,18.91
2022-10-29T12:03:17.952Z,19.06
2022-10-29T12:05:57.208Z,19.03
2022-10-29T12:08:42.215Z,19.12
2022-10-29T12:11:21.089Z,19.17
2022-10-29T12:14:00.530Z,19.06
2022-10-29T12:16:38.203Z,19.26
2022-10-29T12:19:18.158Z,19.40
2022-10-29T12:22:00.799Z,19.32
2022-10-29T12:24:43.267Z,19.42
2022-10-29T12:27:19.596Z,19.44
2022-10-29T12:29:59.135Z,19.43
2022-10-29T12:32:33.583Z,19.17
2022-10-29T12:35:08.382Z,19.34
2022-10-29T12:37:44.340Z,18.97
2022-10-29T12:40:19.820Z,19.08
2022-10-29T12:42:51.523Z,19.03
2022-10-29T12:45:31.864Z,18.83
2022-10-29T12:48:09.339Z,18.94
2022-10-29T12:50:50.537Z,18.87
2022-10-29T12:53:30.202Z,18.94
2022-10-29T12:56:01.913Z,19.04
2022-10-29T12:58:53.197Z,18.98
2022-10-29T13:02:11.150Z,19.04
2022-10-29T13:05:21.172Z,19.01
2022-10-29T13:08:27.804Z,18.95
2022-10-29T13:10:59.187Z,18.89
2022-10-29T13:13:54.047Z,19.01
2022-10-29T13:16:30.638Z,19.07
2022-10-29T13:19:22.044Z,19.09
2022-10-29T13:22:01.229Z,19.14
2022-10-29T13:24:31.965Z,19.28
2022-10-29T13:27:28.077Z,19.33
2022-10-29T13:30:24.063Z,19.27
2022-10-29T13:32:53.151Z,19.38
2022-10-29T13:35:42.372Z,19.44
2022-10-29T13:38:16.336Z,19.56
2022-10-29T13:41:08.950Z,19.52
2022-10-29T13:43:39.771Z,19.42
2022-10-29T13:46:52.954Z,19.42
2022-10-29T13:49:26.320Z,19.50
2022-10-29T13:52:03.369Z,19.43
2022-10-29T13:54:42.839Z,19.62
2022-10-29T13:57:20.896Z,19.59
2022-10-29T13:59:57.174Z,19.55
2022-10-29T14:02:33.541Z,19.40
2022-10-29T14:05:07.550Z,19.46
2022-10-29T14:07:43.289Z,19.51
2022-10-29T14:10:20.552Z,19.53
2022-10-29T14:12:53.167Z,19.61
2022-10-29T14:15:23.002Z,19.70
2022-10-29T14:17:51.349Z,19.63
2022-10-29T14:20:25.508Z,19.63
2022-10-29T14:22:54.877Z,19.59
2022-10-29T14:25:36.409Z,19.69
2022-10-29T14:28:16.179Z,19.81
2022-10-29T14:30:46.808Z,19.67
2022-10-29T14:33:26.968Z,19.82
2022-10-29T14:36:05.313Z,19.79
2022-10-29T14:38:40.519Z,19.63
2022-10-29T14:41:11.934Z,19.58
2022-10-29T14:43:41.271Z,19.58
2022-10-29T14:46:28.684Z,19.50
2022-10-29T14:49:04.479Z,19.40
2022-10-29T14:51:40.842Z,19.35
2022-10-29T14:54:16.734Z,19.37
2022-10-29T14:56:46.705Z,19.30
2022-10-29T14:59:21.659Z,19.33
2022-10-29T15:01:57.101Z,19.36
2022-10-29T15:04:31.037Z,19.25
2022-10-29T15:07:18.347Z,19.25
2022-10-29T15:09:48.431Z,19.25
2022-10-29T15:12:21.710Z,19.16
2022-10-29T15:14:51.395Z,19.22
2022-10-29T15:17:24.269Z,19.34
2022-10-29T15:19:58.232Z,19.48
2022-10-29T15:22:34.268Z,19.29
2022-10-29T15:25:06.924Z,19.09
2022-10-29T15:27:37.764Z,19.13
2022-10-29T15:30:07.440Z,19.16
2022-10-29T15:32:37.480Z,19.34
2022-10-29T15:35:13.639Z,19.12
2022-10-29T15:37:46.249Z,19.12
2022-10-29T15:40:21.782Z,18.81
2022-10-29T15:42:53.866Z,18.79
2022-10-29T15:45:25.646Z,18.68
2022-10-29T15:47:59.554Z,18.60
2022-10-29T15:50:39.048Z,18.48
2022-10-29T15:53:13.445Z,18.42
2022-10-29T15:55:42.199Z,18.47
2022-10-29T15:58:13.478Z,18.45
2022-10-29T16:00:42.497Z,18.28
2022-10-29T16:03:17.941Z,18.18
2022-10-29T16:05:49.489Z,18.09
2022-10-29T16:08:26.110Z,18.05
2022-10-29T16:10:55.399Z,18.21
2022-10-29T16:13:25.610Z,18.02
2022-10-29T16:15:53.887Z,17.91
2022-10-29T16:18:24.338Z,18.10
2022-10-29T16:20:57.470Z,17.89
2022-10-29T16:23:27.368Z,17.92
2022-10-29T16:25:56.111Z,18.08
2022-10-29T16:28:24.477Z,17.90
2022-10-29T16:30:56.230Z,17.68
2022-10-29T16:33:27.346Z,17.70
2022-10-29T16:35:55.734Z,17.70
2022-10-29T16:38:24.973Z,17.67
2022-10-29T16:40:57.052Z,17.40
2022-10-29T16:43:26.561Z,17.34
2022-10-29T16:45:56.652Z,17.33
2022-10-29T16:48:29.435Z,17.35
2022-10-29T16:50:58.263Z,17.35
2022-10-29T16:53:27.465Z,17.33
2022-10-29T16:55:55.947Z,17.14
2022-10-29T16:58:24.672Z,17.09
2022-10-29T17:00:53.570Z,16.99
2022-10-29T17:03:22.042Z,16.93
2022-10-29T17:05:56.939Z,16.97
2022-10-29T17:08:25.574Z,16.75
2022-10-29T17:11:00.471Z,16.81
2022-10-29T17:13:30.051Z,16.73
2022-10-29T17:15:58.474Z,16.66
2022-10-29T17:18:26.966Z,16.78
2022-10-29T17:21:02.080Z,16.69
2022-10-29T17:23:32.159Z,16.60
2022-10-29T17:26:01.298Z,16.63
2022-10-29T17:28:30.703Z,16.63
2022-10-29T17:30:58.862Z,16.64
2022-10-29T17:33:27.600Z,16.52
2022-10-29T17:36:04.254Z,16.39
2022-10-29T17:38:35.043Z,16.32
2022-10-29T17:41:04.213Z,16.39
2022-10-29T17:43:35.174Z,16.33
2022-10-29T17:46:03.652Z,16.37
2022-10-29T17:48:32.383Z,16.24
2022-10-29T17:51:04.893Z,16.45
2022-10-29T17:53:33.563Z,16.41
2022-10-29T17:56:02.926Z,16.20
2022-10-29T17:58:32.138Z,16.34
2022-10-29T18:01:05.366Z,16.40
2022-10-29T18:03:33.838Z,16.40
2022-10-29T18:06:05.377Z,16.16
2022-10-29T18:08:34.330Z,16.05
2022-10-29T18:11:09.398Z,16.00
2022-10-29T18:13:43.832Z,16.14
2022-10-29T18:16:13.958Z,16.16
2022-10-29T18:18:54.781Z,16.15
2022-10-29T18:21:32.863Z,16.01
2022-10-29T18:24:03.338Z,16.06
2022-10-29T18:26:36.069Z,15.93
2022-10-29T18:29:08.458Z,16.03
2022-10-29T18:31:38.353Z,15.93
2022-10-29T18:34:08.252Z,15.93
2022-10-29T18:36:39.967Z,15.74
2022-10-29T18:39:08.654Z,15.76
2022-10-29T18:41:37.629Z,15.82
2022-10-29T18:44:06.711Z,15.86
2022-10-29T18:46:38.003Z,15.78
2022-10-29T18:49:07.841Z,15.75
2022-10-29T18:51:38.450Z,15.58
2022-10-29T18:54:12.052Z,15.46
2022-10-29T18:56:41.050Z,15.45
2022-10-29T18:59:12.959Z,15.32
2022-10-29T19:01:42.099Z,14.99
2022-10-29T19:04:15.801Z,15.28
2022-10-29T19:06:47.451Z,15.37
2022-10-29T19:09:16.903Z,15.40
2022-10-29T19:11:45.908Z,15.21
2022-10-29T19:14:15.823Z,15.13
2022-10-29T19:16:45.583Z,15.22
2022-10-29T19:19:17.213Z,15.14
2022-10-29T19:21:50.038Z,15.24
2022-10-29T19:24:19.256Z,15.32
2022-10-29T19:26:49.286Z,15.52
2022-10-29T19:29:18.061Z,15.19
2022-10-29T19:31:46.932Z,15.52
2022-10-29T19:34:15.398Z,15.66
2022-10-29T19:36:43.916Z,15.62
2022-10-29T19:39:14.663Z,15.30
2022-10-29T19:41:43.213Z,15.23
2022-10-29T19:44:11.725Z,15.30
2022-10-29T19:46:40.257Z,15.50
2022-10-29T19:49:08.963Z,15.32
2022-10-29T19:51:38.098Z,15.17
2022-10-29T19:54:09.814Z,15.04
2022-10-29T19:56:39.973Z,14.98
2022-10-29T19:59:15.298Z,14.85
2022-10-29T20:01:44.619Z,14.63
2022-10-29T20:04:13.323Z,14.62
2022-10-29T20:06:41.775Z,14.47
2022-10-29T20:09:10.508Z,14.45
2022-10-29T20:11:40.900Z,14.44
2022-10-29T20:14:09.074Z,14.32
2022-10-29T20:16:37.502Z,14.40
2022-10-29T20:19:08.941Z,14.48
2022-10-29T20:21:40.301Z,14.48
2022-10-29T20:24:09.876Z,14.45
2022-10-29T20:26:39.498Z,14.53
2022-10-29T20:29:08.175Z,14.52
2022-10-29T20:31:41.149Z,14.61
2022-10-29T20:34:12.333Z,14.61
2022-10-29T20:36:43.220Z,14.71
2022-10-29T20:39:14.658Z,14.77
2022-10-29T20:41:45.456Z,14.82
2022-10-29T20:44:14.020Z,14.82
2022-10-29T20:46:43.931Z,14.87
2022-10-29T20:49:12.687Z,14.85
2022-10-29T20:51:41.830Z,14.88
2022-10-29T20:54:10.468Z,14.89
2022-10-29T20:56:39.583Z,15.07
2022-10-29T20:59:09.771Z,14.76
2022-10-29T21:01:38.272Z,14.77
2022-10-29T21:04:08.812Z,14.80
2022-10-29T21:06:37.190Z,14.79
2022-10-29T21:09:07.518Z,14.72
2022-10-29T21:11:35.956Z,14.66
2022-10-29T21:14:06.260Z,14.63
2022-10-29T21:16:36.363Z,14.54
2022-10-29T21:19:07.451Z,14.49
2022-10-29T21:21:37.407Z,14.81
2022-10-29T21:24:06.147Z,14.81
2022-10-29T21:26:34.723Z,14.85
2022-10-29T21:29:04.255Z,14.88
2022-10-29T21:31:32.736Z,14.94
2022-10-29T21:34:03.590Z,14.96
2022-10-29T21:36:31.989Z,14.94
2022-10-29T21:39:00.716Z,14.95
2022-10-29T21:41:29.195Z,15.02
2022-10-29T21:43:59.177Z,14.98
2022-10-29T21:46:27.574Z,14.90
2022-10-29T21:48:59.582Z,15.03
2022-10-29T21:51:29.395Z,15.13
2022-10-29T21:53:58.218Z,14.98
2022-10-29T21:56:26.435Z,14.92
2022-10-29T21:58:54.983Z,14.88
2022-10-29T22:01:24.673Z,14.88
2022-10-29T22:03:53.271Z,14.82
2022-10-29T22:06:23.523Z,14.78
2022-10-29T22:08:58.183Z,14.98
2022-10-29T22:11:27.683Z,14.92
2022-10-29T22:13:56.616Z,15.03
2022-10-29T22:16:25.412Z,14.99
2022-10-29T22:18:54.363Z,14.94
2022-10-29T22:21:24.330Z,14.92
2022-10-29T22:23:57.247Z,15.05
2022-10-29T22:26:28.234Z,15.08
2022-10-29T22:28:57.103Z,14.99
2022-10-29T22:31:28.485Z,14.87
2022-10-29T22:34:00.375Z,15.11
2022-10-29T22:36:30.903Z,15.10
2022-10-29T22:39:02.016Z,15.05
2022-10-29T22:41:31.481Z,14.66
2022-10-29T22:44:00.580Z,14.49
2022-10-29T22:46:31.316Z,14.42
2022-10-29T22:49:04.029Z,14.37
2022-10-29T22:51:35.834Z,14.27
2022-10-29T22:54:08.048Z,14.34
2022-10-29T22:56:39.250Z,14.37
2022-10-29T22:59:08.246Z,14.21
2022-10-29T23:01:42.373Z,14.41
2022-10-29T23:04:17.178Z,14.33
2022-10-29T23:06:48.095Z,14.30
2022-10-29T23:09:18.660Z,14.32
2022-10-29T23:11:47.288Z,14.49
2022-10-29T23:14:15.747Z,14.45
2022-10-29T23:16:44.379Z,14.38
2022-10-29T23:19:13.516Z,14.25
2022-10-29T23:21:42.015Z,14.25
2022-10-29T23:24:11.329Z,14.21
2022-10-29T23:26:40.924Z,14.24
2022-10-29T23:29:09.152Z,14.27
2022-10-29T23:31:37.550Z,14.25
2022-10-29T23:34:06.241Z,14.34
2022-10-29T23:36:35.474Z,14.41
2022-10-29T23:39:03.758Z,14.51
2022-10-29T23:41:33.275Z,14.59
2022-10-29T23:44:05.318Z,14.48
2022-10-29T23:46:35.129Z,14.54
2022-10-29T23:49:03.417Z,14.65
2022-10-29T23:54:01.847Z,14.80
2022-10-29T23:56:31.016Z,14.88
2022-10-29T23:58:59.406Z,14.89
